Calumet — WDE3568 — position and weather

sailwx.info

Track history (hours):
 
Tides and Currents Weather Stations Pressure Air Temp Water Temp Dewpoint Dewpoint Depression Visibility Wind Speed Wind Dir Waves Ship Positions

Calumet

Owner: Grand River Navigation Company, Traverse City, MI. More information available from US FCC via Universal Licensing System and Coast Guard Vessel Documentation Center.

Last reported at 2015-Dec-19 11:04 UTC. Time now 2016-Feb-09 15:46 UTC.
Position N 45°39' W 084°10'.
Warning: this ship's position is 52 days out of date.

Length 192 m; draft 6.8 m.

Type: Cargo ship. MMSI: 367132630.

Date/timePositionNaut miles runAvg speedWind from/ knotsBaromVisibWave heightAir tempDewpointWater temp
2015-Dec-19 11:04N 45°39' W 084°10'5 9.3
2015-Dec-19 10:33N 45°41' W 084°16'9 9.4
2015-Dec-19 09:33N 45°42' W 084°29'9 9.5
2015-Dec-19 08:33N 45°48' W 084°40'9 8.8
2015-Dec-19 07:33N 45°49' W 084°53'9 8.8
2015-Dec-19 06:33N 45°50' W 085°05'7 6.7
2015-Dec-19 05:33N 45°44' W 085°11'9 8.7
2015-Dec-19 04:33N 45°37' W 085°18'9 9.2
2015-Dec-19 03:33N 45°30' W 085°26'9 9.0
2015-Dec-19 02:33N 45°22' W 085°34'8 8.1
2015-Dec-19 01:33N 45°16' W 085°40'8 8.4
2015-Dec-19 00:33N 45°09' W 085°47'8 8.2
2015-Dec-18 23:33N 45°03' W 085°54'  
2015-Dec-15 13:00N 44°30' W 086°24'3710.8 320 / 18 1.5 2.7
2015-Dec-15 09:33N 45°01' W 085°56'1211.9
2015-Dec-15 08:33N 45°11' W 085°47'1212.0
2015-Dec-15 07:33N 45°21' W 085°37'1110.7
2015-Dec-15 06:34N 45°30' W 085°28'1212.1
2015-Dec-15 05:33N 45°40' W 085°18'1010.4
2015-Dec-15 04:33N 45°48' W 085°09'9 9.1
2015-Dec-15 03:33N 45°50' W 084°56'1010.3
2015-Dec-15 02:33N 45°48' W 084°41'1111.2
2015-Dec-15 01:33N 45°42' W 084°27'1010.5
2015-Dec-15 00:33N 45°41' W 084°13'18910.5
2015-Dec-14 06:32N 42°47' W 082°28'10 9.0
2015-Dec-14 05:26N 42°37' W 082°31'8 8.7
2015-Dec-14 04:33N 42°32' W 082°38'1010.5
2015-Dec-14 03:33N 42°25' W 082°49'10 9.8
2015-Dec-14 02:33N 42°20' W 083°00'  
2015-Dec-11 11:33N 42°25' W 082°50'1111.4
2015-Dec-11 10:33N 42°32' W 082°38'12 8.7
2015-Dec-11 09:10N 42°42' W 082°30'0 0.1
2015-Dec-11 08:33N 42°42' W 082°30'0 0.0
2015-Dec-11 07:33N 42°42' W 082°30'0 0.0
2015-Dec-11 06:31N 42°42' W 082°30'0 0.0
2015-Dec-11 05:33N 42°42' W 082°30'0 0.4
2015-Dec-11 04:31N 42°43' W 082°29'194 5.7
2015-Dec-09 18:33N 45°41' W 084°16'10 9.7
2015-Dec-09 17:33N 45°43' W 084°30'8 7.9
2015-Dec-09 16:34N 45°47' W 084°39'1010.2
2015-Dec-09 15:33N 45°49' W 084°54'1010.4
2015-Dec-09 14:33N 45°49' W 085°08'1111.3
2015-Dec-09 13:33N 45°39' W 085°16'1312.8
2015-Dec-09 12:33N 45°29' W 085°27'1312.8
2015-Dec-09 11:33N 45°19' W 085°38'  
Track history (hours):
 
Tides and Currents Weather Stations Pressure Air Temp Water Temp Dewpoint Dewpoint Depression Visibility Wind Speed Wind Dir Waves Ship Positions

Calumet

Owner: Grand River Navigation Company, Traverse City, MI. More information available from US FCC via Universal Licensing System and Coast Guard Vessel Documentation Center.

Last reported at 2015-Dec-19 11:04 UTC. Time now 2016-Feb-09 15:46 UTC.
Position N 45°39' W 084°10'.
Warning: this ship's position is 52 days out of date.

Length 192 m; draft 6.8 m.

Type: Cargo ship. MMSI: 367132630.

Date/timePositionNaut miles runAvg speedWind from/ knotsBaromVisibWave heightAir tempDewpointWater temp
2015-Dec-19 11:04N 45°39' W 084°10'5 9.3
2015-Dec-19 10:33N 45°41' W 084°16'9 9.4
2015-Dec-19 09:33N 45°42' W 084°29'9 9.5
2015-Dec-19 08:33N 45°48' W 084°40'9 8.8
2015-Dec-19 07:33N 45°49' W 084°53'9 8.8
2015-Dec-19 06:33N 45°50' W 085°05'7 6.7
2015-Dec-19 05:33N 45°44' W 085°11'9 8.7
2015-Dec-19 04:33N 45°37' W 085°18'9 9.2
2015-Dec-19 03:33N 45°30' W 085°26'9 9.0
2015-Dec-19 02:33N 45°22' W 085°34'8 8.1
2015-Dec-19 01:33N 45°16' W 085°40'8 8.4
2015-Dec-19 00:33N 45°09' W 085°47'8 8.2
2015-Dec-18 23:33N 45°03' W 085°54'  
2015-Dec-15 13:00N 44°30' W 086°24'3710.8 320 / 18 1.5 2.7
2015-Dec-15 09:33N 45°01' W 085°56'1211.9
2015-Dec-15 08:33N 45°11' W 085°47'1212.0
2015-Dec-15 07:33N 45°21' W 085°37'1110.7
2015-Dec-15 06:34N 45°30' W 085°28'1212.1
2015-Dec-15 05:33N 45°40' W 085°18'1010.4
2015-Dec-15 04:33N 45°48' W 085°09'9 9.1
2015-Dec-15 03:33N 45°50' W 084°56'1010.3
2015-Dec-15 02:33N 45°48' W 084°41'1111.2
2015-Dec-15 01:33N 45°42' W 084°27'1010.5
2015-Dec-15 00:33N 45°41' W 084°13'18910.5
2015-Dec-14 06:32N 42°47' W 082°28'10 9.0
2015-Dec-14 05:26N 42°37' W 082°31'8 8.7
2015-Dec-14 04:33N 42°32' W 082°38'1010.5
2015-Dec-14 03:33N 42°25' W 082°49'10 9.8
2015-Dec-14 02:33N 42°20' W 083°00'  
2015-Dec-11 11:33N 42°25' W 082°50'1111.4
2015-Dec-11 10:33N 42°32' W 082°38'12 8.7
2015-Dec-11 09:10N 42°42' W 082°30'0 0.1
2015-Dec-11 08:33N 42°42' W 082°30'0 0.0
2015-Dec-11 07:33N 42°42' W 082°30'0 0.0
2015-Dec-11 06:31N 42°42' W 082°30'0 0.0
2015-Dec-11 05:33N 42°42' W 082°30'0 0.4
2015-Dec-11 04:31N 42°43' W 082°29'194 5.7
2015-Dec-09 18:33N 45°41' W 084°16'10 9.7
2015-Dec-09 17:33N 45°43' W 084°30'8 7.9
2015-Dec-09 16:34N 45°47' W 084°39'1010.2
2015-Dec-09 15:33N 45°49' W 084°54'1010.4
2015-Dec-09 14:33N 45°49' W 085°08'1111.3
2015-Dec-09 13:33N 45°39' W 085°16'1312.8
2015-Dec-09 12:33N 45°29' W 085°27'1312.8
2015-Dec-09 11:33N 45°19' W 085°38'  

Dump ship's entire track history